createdAt,value
2019-03-25T00:01:25.995Z,18.10
2019-03-25T00:03:53.595Z,23.87
2019-03-25T00:06:21.176Z,23.50
2019-03-25T00:08:48.829Z,24.33
2019-03-25T00:11:16.412Z,17.57
2019-03-25T00:13:44.031Z,15.00
2019-03-25T00:16:11.676Z,18.17
2019-03-25T00:18:39.366Z,23.00
2019-03-25T00:21:06.964Z,18.30
2019-03-25T00:23:34.590Z,18.47
2019-03-25T00:26:02.292Z,19.17
2019-03-25T00:28:29.869Z,16.97
2019-03-25T00:30:57.669Z,19.60
2019-03-25T00:33:25.259Z,16.77
2019-03-25T00:35:52.834Z,19.00
2019-03-25T00:38:58.413Z,20.83
2019-03-25T00:41:26.016Z,23.53
2019-03-25T00:43:53.611Z,25.47
2019-03-25T00:46:21.352Z,23.17
2019-03-25T00:48:49.016Z,29.43
2019-03-25T00:51:16.622Z,30.77
2019-03-25T00:53:44.255Z,22.97
2019-03-25T00:56:11.858Z,18.20
2019-03-25T00:58:39.489Z,15.17
2019-03-25T01:01:07.112Z,16.73
2019-03-25T01:03:34.701Z,15.43
2019-03-25T01:06:02.304Z,23.27
2019-03-25T01:08:29.984Z,18.77
2019-03-25T01:10:57.607Z,19.10
2019-03-25T01:13:27.052Z,25.73
2019-03-25T01:15:54.781Z,19.37
2019-03-25T01:18:22.385Z,23.30
2019-03-25T01:20:49.985Z,21.00
2019-03-25T01:23:17.738Z,18.53
2019-03-25T01:25:45.355Z,16.50
2019-03-25T01:28:12.964Z,13.53
2019-03-25T01:30:40.619Z,18.13
2019-03-25T01:33:08.232Z,18.03
2019-03-25T01:35:35.840Z,18.33
2019-03-25T01:38:03.613Z,21.37
2019-03-25T01:40:31.216Z,17.33
2019-03-25T01:43:20.375Z,23.07
2019-03-25T01:45:47.969Z,17.27
2019-03-25T01:48:15.574Z,21.00
2019-03-25T01:50:43.199Z,15.70
2019-03-25T01:53:10.784Z,26.30
2019-03-25T01:55:38.367Z,15.27
2019-03-25T01:58:06.023Z,24.03
2019-03-25T02:00:33.832Z,21.00
2019-03-25T02:03:01.434Z,20.07
2019-03-25T02:05:29.060Z,19.20
2019-03-25T02:07:56.679Z,16.63
2019-03-25T02:10:24.287Z,17.87
2019-03-25T02:12:52.033Z,15.43
2019-03-25T02:15:19.613Z,16.73
2019-03-25T02:17:47.205Z,23.30
2019-03-25T02:20:25.839Z,19.80
2019-03-25T02:22:44.569Z,17.73
2019-03-25T02:25:20.695Z,17.50
2019-03-25T02:27:42.413Z,18.07
2019-03-25T02:30:10.107Z,22.10
2019-03-25T02:32:37.723Z,21.80
2019-03-25T02:35:05.782Z,16.10
2019-03-25T02:37:33.403Z,19.03
2019-03-25T02:40:01.000Z,18.23
2019-03-25T02:42:28.634Z,16.50
2019-03-25T02:44:56.256Z,17.90
2019-03-25T02:47:23.855Z,17.23
2019-03-25T02:49:51.565Z,20.17
2019-03-25T02:52:19.196Z,15.53
2019-03-25T02:54:46.736Z,17.87
2019-03-25T02:57:14.353Z,16.93
2019-03-25T02:59:41.963Z,15.43
2019-03-25T03:02:09.550Z,19.20
2019-03-25T03:04:37.196Z,15.90
2019-03-25T03:07:04.883Z,18.03
2019-03-25T03:09:32.472Z,31.43
2019-03-25T03:12:00.271Z,21.97
2019-03-25T03:14:27.846Z,19.37
2019-03-25T03:16:55.453Z,23.03
2019-03-25T03:19:23.078Z,16.57
2019-03-25T03:21:50.666Z,18.10
2019-03-25T03:24:18.254Z,13.53
2019-03-25T03:26:45.896Z,16.57
2019-03-25T03:29:13.467Z,21.40
2019-03-25T03:31:41.170Z,20.90
2019-03-25T03:34:08.778Z,21.43
2019-03-25T03:36:36.392Z,19.80
2019-03-25T03:39:05.437Z,23.77
2019-03-25T03:41:33.067Z,26.37
2019-03-25T03:44:00.977Z,27.83
2019-03-25T03:46:28.658Z,16.67
2019-03-25T03:48:56.283Z,13.20
2019-03-25T03:51:23.945Z,8.87
2019-03-25T03:53:51.727Z,14.83
2019-03-25T03:56:19.438Z,10.13
2019-03-25T03:59:49.070Z,9.80
2019-03-25T04:02:16.745Z,8.60
2019-03-25T04:04:44.308Z,16.03
2019-03-25T04:07:11.917Z,16.50
2019-03-25T04:09:39.567Z,15.73
2019-03-25T04:12:07.152Z,14.27
2019-03-25T04:14:34.741Z,14.63
2019-03-25T04:17:02.506Z,16.57
2019-03-25T04:19:30.221Z,15.30
2019-03-25T04:21:57.818Z,13.63
2019-03-25T04:24:25.577Z,9.70
2019-03-25T04:26:53.175Z,12.80
2019-03-25T04:29:20.755Z,12.73
2019-03-25T04:31:48.367Z,10.57
2019-03-25T04:34:16.204Z,7.20
2019-03-25T04:36:43.787Z,5.03
2019-03-25T04:39:11.361Z,8.20
2019-03-25T04:41:39.298Z,6.07
2019-03-25T04:44:06.877Z,15.70
2019-03-25T04:46:34.458Z,14.73
2019-03-25T04:49:02.072Z,10.50
2019-03-25T04:51:29.699Z,12.50
2019-03-25T04:54:15.443Z,16.63
2019-03-25T04:56:43.034Z,15.93
2019-03-25T04:59:10.739Z,13.43
2019-03-25T05:01:38.364Z,13.07
2019-03-25T05:04:05.962Z,13.37
2019-03-25T05:06:33.552Z,18.20
2019-03-25T05:09:01.191Z,23.23
2019-03-25T05:11:30.904Z,17.87
2019-03-25T05:13:58.271Z,22.20
2019-03-25T05:16:25.907Z,21.97
2019-03-25T05:18:53.505Z,27.93
2019-03-25T05:21:21.135Z,15.53
2019-03-25T05:23:48.718Z,16.77
2019-03-25T05:26:16.370Z,24.73
2019-03-25T05:28:43.927Z,31.73
2019-03-25T05:31:11.506Z,19.90
2019-03-25T05:33:39.102Z,20.70
2019-03-25T05:36:06.762Z,14.93
2019-03-25T05:38:34.360Z,21.00
2019-03-25T05:41:01.953Z,19.73
2019-03-25T05:43:30.788Z,25.13
2019-03-25T05:45:58.388Z,27.10
2019-03-25T05:48:25.958Z,16.90
2019-03-25T05:50:53.626Z,18.47
2019-03-25T05:53:21.260Z,21.47
2019-03-25T05:55:49.028Z,20.97
2019-03-25T05:58:16.658Z,20.53
2019-03-25T06:00:44.359Z,23.77
2019-03-25T06:03:11.988Z,31.90
2019-03-25T06:05:39.672Z,27.70
2019-03-25T06:08:09.081Z,24.60
2019-03-25T06:10:36.710Z,20.97
2019-03-25T06:13:04.299Z,23.30
2019-03-25T06:15:31.889Z,34.77
2019-03-25T06:17:59.537Z,22.37
2019-03-25T06:20:28.442Z,21.60
2019-03-25T06:22:56.077Z,27.67
2019-03-25T06:25:23.750Z,31.37
2019-03-25T06:27:51.348Z,20.13
2019-03-25T06:30:19.582Z,33.07
2019-03-25T06:33:12.489Z,27.17
2019-03-25T06:35:35.917Z,31.00
2019-03-25T06:38:03.635Z,30.43
2019-03-25T06:40:31.291Z,30.37
2019-03-25T06:45:25.608Z,29.63
2019-03-25T06:47:53.195Z,28.30
2019-03-25T06:50:20.791Z,28.83
2019-03-25T06:52:48.468Z,32.67
2019-03-25T06:55:16.405Z,27.93
2019-03-25T06:57:43.997Z,38.07
2019-03-25T07:00:12.642Z,24.47
2019-03-25T07:02:40.236Z,35.33
2019-03-25T07:05:08.169Z,30.57
2019-03-25T07:07:35.833Z,24.63
2019-03-25T07:10:04.036Z,26.67
2019-03-25T07:12:31.695Z,34.53
2019-03-25T07:14:59.476Z,29.60
2019-03-25T07:17:27.061Z,30.97
2019-03-25T07:19:54.647Z,30.43
2019-03-25T07:22:45.891Z,31.77
2019-03-25T07:25:13.485Z,29.20
2019-03-25T07:27:41.074Z,32.70
2019-03-25T07:30:11.334Z,29.23
2019-03-25T07:32:38.707Z,23.50
2019-03-25T07:35:06.777Z,29.53
2019-03-25T07:37:34.519Z,23.80
2019-03-25T07:40:02.211Z,30.20
2019-03-25T07:42:29.806Z,30.23
2019-03-25T07:44:57.645Z,26.90
2019-03-25T07:47:25.281Z,24.77
2019-03-25T07:49:52.898Z,26.97
2019-03-25T07:52:20.544Z,23.90
2019-03-25T07:54:48.213Z,19.23
2019-03-25T07:57:16.000Z,23.63
2019-03-25T07:59:43.616Z,14.40
2019-03-25T08:02:11.200Z,31.30
2019-03-25T08:04:39.959Z,34.67
2019-03-25T08:07:07.526Z,23.43
2019-03-25T08:09:35.278Z,18.97
2019-03-25T08:12:02.926Z,14.50
2019-03-25T08:14:30.528Z,14.30
2019-03-25T08:16:58.103Z,16.50
2019-03-25T08:19:25.704Z,21.50
2019-03-25T08:21:53.291Z,18.53
2019-03-25T08:24:20.865Z,21.43
2019-03-25T08:26:48.480Z,14.80
2019-03-25T08:29:40.124Z,17.00
2019-03-25T08:32:07.761Z,10.40
2019-03-25T08:34:35.347Z,17.33
2019-03-25T08:37:04.424Z,11.47
2019-03-25T08:39:32.204Z,15.93
2019-03-25T08:41:59.890Z,13.20
2019-03-25T08:44:27.638Z,19.07
2019-03-25T08:46:55.293Z,22.17
2019-03-25T08:49:23.135Z,18.80
2019-03-25T08:51:50.829Z,23.13
2019-03-25T08:54:18.802Z,20.77
2019-03-25T08:56:46.636Z,22.73
2019-03-25T08:59:14.270Z,23.17
2019-03-25T09:01:41.990Z,18.17
2019-03-25T09:04:50.375Z,14.93
2019-03-25T09:07:18.010Z,21.07
2019-03-25T09:09:45.610Z,18.07
2019-03-25T09:12:13.232Z,14.97
2019-03-25T09:14:40.887Z,19.97
2019-03-25T09:17:08.560Z,14.77
2019-03-25T09:19:36.155Z,19.43
2019-03-25T09:22:04.017Z,27.67
2019-03-25T09:24:33.030Z,18.60
2019-03-25T09:27:00.803Z,24.23
2019-03-25T09:29:29.575Z,23.40
2019-03-25T09:31:57.173Z,16.40
2019-03-25T09:34:24.757Z,24.63
2019-03-25T09:36:52.409Z,22.40
2019-03-25T09:39:31.903Z,25.80
2019-03-25T09:41:59.562Z,14.17
2019-03-25T09:44:27.188Z,22.50
2019-03-25T09:46:54.848Z,19.90
2019-03-25T09:49:22.428Z,19.63
2019-03-25T09:51:52.740Z,17.60
2019-03-25T09:54:19.568Z,19.53
2019-03-25T09:56:47.279Z,14.17
2019-03-25T09:59:14.934Z,15.17
2019-03-25T10:01:42.518Z,9.43
2019-03-25T10:04:10.212Z,15.37
2019-03-25T10:06:38.053Z,22.60
2019-03-25T10:09:09.348Z,20.50
2019-03-25T10:11:36.993Z,18.40
2019-03-25T10:14:04.599Z,20.87
2019-03-25T10:16:32.182Z,18.40
2019-03-25T10:19:00.891Z,16.77
2019-03-25T10:21:28.534Z,19.70
2019-03-25T10:23:56.134Z,22.77
2019-03-25T10:26:23.710Z,18.60
2019-03-25T10:28:51.437Z,17.63
2019-03-25T10:31:19.029Z,16.60
2019-03-25T10:33:46.643Z,20.07
2019-03-25T10:36:14.265Z,17.77
2019-03-25T10:38:41.886Z,14.47
2019-03-25T10:41:09.599Z,18.00
2019-03-25T10:43:37.344Z,16.70
2019-03-25T10:46:05.206Z,16.13
2019-03-25T10:48:32.852Z,13.63
2019-03-25T10:51:00.459Z,14.87
2019-03-25T10:53:28.100Z,14.77
2019-03-25T10:55:55.699Z,16.90
2019-03-25T10:58:23.293Z,15.80
2019-03-25T11:00:50.902Z,15.17
2019-03-25T11:03:18.502Z,16.67
2019-03-25T11:05:46.698Z,11.70
2019-03-25T11:08:14.288Z,9.10
2019-03-25T11:10:41.907Z,9.23
2019-03-25T11:13:09.508Z,19.50
2019-03-25T11:15:37.093Z,15.10
2019-03-25T11:18:05.854Z,6.53
2019-03-25T11:20:33.625Z,7.10
2019-03-25T11:23:01.373Z,14.33
2019-03-25T11:25:29.003Z,10.97
2019-03-25T11:27:56.602Z,9.20
2019-03-25T11:30:48.123Z,11.13
2019-03-25T11:33:15.722Z,10.63
2019-03-25T11:35:43.331Z,5.83
2019-03-25T11:38:10.978Z,6.70
2019-03-25T11:40:38.565Z,5.83
2019-03-25T11:43:06.256Z,8.00
2019-03-25T11:45:33.904Z,13.10
2019-03-25T11:48:01.599Z,16.33
2019-03-25T11:50:29.318Z,20.67
2019-03-25T11:52:56.984Z,15.90
2019-03-25T11:55:24.620Z,14.63
2019-03-25T11:57:52.313Z,17.23
2019-03-25T12:00:20.027Z,14.77
2019-03-25T12:02:47.753Z,9.07
2019-03-25T12:05:15.353Z,10.00
2019-03-25T12:07:43.192Z,7.80
2019-03-25T12:10:11.137Z,3.77
2019-03-25T12:12:38.739Z,15.33
2019-03-25T12:15:07.470Z,9.23
2019-03-25T12:17:35.278Z,12.10
2019-03-25T12:20:03.981Z,8.57
2019-03-25T12:22:31.610Z,7.30
2019-03-25T12:24:59.203Z,8.17
2019-03-25T12:27:35.763Z,17.20
2019-03-25T12:30:03.589Z,14.47
2019-03-25T12:32:31.178Z,11.40
2019-03-25T12:34:58.844Z,13.90
2019-03-25T12:37:26.456Z,13.13
2019-03-25T12:39:54.139Z,10.53
2019-03-25T12:42:21.873Z,14.10
2019-03-25T12:44:49.455Z,13.40
2019-03-25T12:47:17.104Z,13.17
2019-03-25T12:49:44.691Z,18.83
2019-03-25T12:52:12.330Z,17.73
2019-03-25T12:54:39.935Z,19.80
2019-03-25T12:57:07.537Z,16.50
2019-03-25T12:59:41.178Z,13.03
2019-03-25T13:02:04.698Z,11.97
2019-03-25T13:04:47.629Z,10.80
2019-03-25T13:07:19.251Z,19.80
2019-03-25T13:10:05.108Z,17.00
2019-03-25T13:12:52.727Z,19.20
2019-03-25T13:15:21.039Z,13.93
2019-03-25T13:17:50.738Z,17.00
2019-03-25T13:20:22.680Z,15.60
2019-03-25T13:22:52.510Z,17.57
2019-03-25T13:25:22.419Z,18.73
2019-03-25T13:27:52.419Z,13.13
2019-03-25T13:30:20.660Z,14.57
2019-03-25T13:32:48.616Z,15.40
2019-03-25T13:35:18.690Z,16.63
2019-03-25T13:37:48.719Z,18.80
2019-03-25T13:40:36.884Z,14.47
2019-03-25T13:43:05.947Z,17.20
2019-03-25T13:45:35.761Z,18.20
2019-03-25T13:48:05.784Z,26.17
2019-03-25T13:50:35.542Z,23.43
2019-03-25T13:53:05.483Z,16.33
2019-03-25T13:55:35.481Z,13.87
2019-03-25T13:58:05.428Z,17.40
2019-03-25T14:00:42.682Z,13.20
2019-03-25T14:03:11.240Z,13.53
2019-03-25T14:05:39.579Z,11.90
2019-03-25T14:08:07.526Z,20.47
2019-03-25T14:10:35.279Z,16.77
2019-03-25T14:13:02.896Z,9.17
2019-03-25T14:15:30.491Z,9.87
2019-03-25T14:17:58.277Z,11.40
2019-03-25T14:20:25.939Z,18.27
2019-03-25T14:22:53.546Z,14.83
2019-03-25T14:25:21.190Z,13.90
2019-03-25T14:27:48.766Z,12.07
2019-03-25T14:30:16.799Z,12.53
2019-03-25T14:32:56.813Z,13.40
2019-03-25T14:35:25.638Z,15.33
2019-03-25T14:37:53.261Z,12.80
2019-03-25T14:40:22.023Z,14.53
2019-03-25T14:42:49.733Z,16.10
2019-03-25T14:45:26.058Z,14.53
2019-03-25T14:47:47.021Z,14.93
2019-03-25T14:50:14.923Z,12.73
2019-03-25T14:52:42.600Z,13.50
2019-03-25T14:55:10.292Z,13.10
2019-03-25T14:57:38.025Z,12.03
2019-03-25T15:00:06.640Z,15.23
2019-03-25T15:02:34.325Z,15.27
2019-03-25T15:05:01.997Z,14.87
2019-03-25T15:07:29.636Z,20.03
2019-03-25T15:09:57.379Z,19.33
2019-03-25T15:12:25.365Z,14.23
2019-03-25T15:14:52.973Z,18.23
2019-03-25T15:17:20.580Z,14.87
2019-03-25T15:19:48.203Z,17.17
2019-03-25T15:22:16.147Z,12.03
2019-03-25T15:24:43.780Z,21.97
2019-03-25T15:27:11.425Z,13.27
2019-03-25T15:29:39.063Z,18.10
2019-03-25T15:32:06.769Z,12.73
2019-03-25T15:34:34.526Z,16.93
2019-03-25T15:37:02.161Z,23.60
2019-03-25T15:39:29.856Z,14.43
2019-03-25T15:41:57.488Z,18.00
2019-03-25T15:44:25.211Z,12.70
2019-03-25T15:46:56.020Z,15.53
2019-03-25T15:49:22.377Z,20.67
2019-03-25T15:51:50.038Z,15.10
2019-03-25T15:54:17.766Z,15.87
2019-03-25T15:56:45.417Z,21.53
2019-03-25T15:59:13.053Z,21.40
2019-03-25T16:01:40.666Z,20.90
2019-03-25T16:04:08.294Z,20.77
2019-03-25T16:06:35.950Z,21.37
2019-03-25T16:09:06.134Z,20.63
2019-03-25T16:11:33.743Z,20.60
2019-03-25T16:14:01.376Z,22.10
2019-03-25T16:16:28.998Z,15.47
2019-03-25T16:18:56.686Z,23.37
2019-03-25T16:21:24.428Z,15.53
2019-03-25T16:23:52.083Z,20.27
2019-03-25T16:26:19.668Z,19.50
2019-03-25T16:28:47.304Z,22.87
2019-03-25T16:31:14.941Z,11.03
2019-03-25T16:33:42.947Z,17.73
2019-03-25T16:36:10.535Z,21.33
2019-03-25T16:38:38.219Z,20.17
2019-03-25T16:41:05.814Z,15.97
2019-03-25T16:43:33.393Z,17.37
2019-03-25T16:46:01.062Z,21.17
2019-03-25T16:48:28.792Z,23.57
2019-03-25T16:50:56.635Z,23.63
2019-03-25T16:53:24.437Z,25.67
2019-03-25T16:55:52.103Z,17.87
2019-03-25T16:58:19.690Z,25.03
2019-03-25T17:00:47.295Z,22.63
2019-03-25T17:03:14.919Z,19.33
2019-03-25T17:05:42.633Z,32.63
2019-03-25T17:08:10.248Z,27.50
2019-03-25T17:10:37.988Z,21.87
2019-03-25T17:13:05.642Z,22.47
2019-03-25T17:15:33.313Z,25.83
2019-03-25T17:18:00.927Z,24.57
2019-03-25T17:20:28.590Z,20.20
2019-03-25T17:22:56.196Z,26.93
2019-03-25T17:25:23.793Z,20.83
2019-03-25T17:27:51.436Z,17.03
2019-03-25T17:30:19.227Z,22.47
2019-03-25T17:32:46.920Z,17.97
2019-03-25T17:35:14.640Z,18.40
2019-03-25T17:37:42.266Z,18.43
2019-03-25T17:40:09.983Z,18.10
2019-03-25T17:42:37.783Z,20.40
2019-03-25T17:45:06.403Z,20.13
2019-03-25T17:47:34.148Z,21.93
2019-03-25T17:50:01.825Z,24.90
2019-03-25T17:52:29.531Z,19.90
2019-03-25T17:54:59.373Z,17.63
2019-03-25T17:57:27.000Z,21.00
2019-03-25T17:59:54.633Z,22.40
2019-03-25T18:02:22.279Z,23.20
2019-03-25T18:04:49.933Z,21.13
2019-03-25T18:07:17.528Z,19.10
2019-03-25T18:09:45.252Z,17.97
2019-03-25T18:12:12.883Z,27.87
2019-03-25T18:14:40.537Z,24.37
2019-03-25T18:17:08.178Z,23.17
2019-03-25T18:19:36.029Z,23.70
2019-03-25T18:22:03.784Z,20.80
2019-03-25T18:24:31.530Z,23.63
2019-03-25T18:26:59.136Z,18.93
2019-03-25T18:29:26.778Z,17.70
2019-03-25T18:31:54.400Z,16.47
2019-03-25T18:34:22.005Z,17.53
2019-03-25T18:36:49.613Z,13.90
2019-03-25T18:39:17.441Z,9.63
2019-03-25T18:41:45.040Z,14.57
2019-03-25T18:44:12.823Z,11.23
2019-03-25T18:46:40.438Z,16.07
2019-03-25T18:49:08.156Z,11.27
2019-03-25T18:51:36.140Z,11.43
2019-03-25T18:54:03.858Z,10.77
2019-03-25T18:56:31.601Z,12.60
2019-03-25T18:58:59.199Z,19.70
2019-03-25T19:01:27.149Z,14.20
2019-03-25T19:03:55.263Z,9.87
2019-03-25T19:06:23.140Z,12.47
2019-03-25T19:08:51.053Z,15.87
2019-03-25T19:11:18.688Z,10.33
2019-03-25T19:13:46.363Z,12.67
2019-03-25T19:16:14.130Z,16.73
2019-03-25T19:18:41.810Z,10.07
2019-03-25T19:21:09.459Z,13.60
2019-03-25T19:23:37.182Z,16.67
2019-03-25T19:26:04.995Z,16.03
2019-03-25T19:28:32.632Z,15.47
2019-03-25T19:31:00.545Z,19.33
2019-03-25T19:33:28.283Z,23.20
2019-03-25T19:35:56.015Z,19.07
2019-03-25T19:38:23.718Z,19.10
2019-03-25T19:40:51.466Z,28.10
2019-03-25T19:43:19.111Z,22.23
2019-03-25T19:45:46.748Z,16.17
2019-03-25T19:48:16.467Z,13.47
2019-03-25T19:50:44.178Z,13.60
2019-03-25T19:53:18.985Z,17.13
2019-03-25T19:55:41.414Z,11.67
2019-03-25T19:58:10.818Z,15.77
2019-03-25T20:00:39.471Z,13.40
2019-03-25T20:03:07.327Z,14.27
2019-03-25T20:05:35.243Z,19.77
2019-03-25T20:08:03.169Z,20.47
2019-03-25T20:10:32.608Z,10.17
2019-03-25T20:13:00.336Z,14.30
2019-03-25T20:15:32.663Z,18.57
2019-03-25T20:17:58.980Z,17.43
2019-03-25T20:20:26.693Z,18.70
2019-03-25T20:22:54.410Z,25.73
2019-03-25T20:25:22.113Z,17.67
2019-03-25T20:27:49.732Z,15.37
2019-03-25T20:30:25.764Z,14.30
2019-03-25T20:32:53.470Z,18.93
2019-03-25T20:35:21.140Z,14.67
2019-03-25T20:37:48.808Z,15.93
2019-03-25T20:40:16.551Z,22.27
2019-03-25T20:42:44.218Z,20.73
2019-03-25T20:45:12.458Z,19.77
2019-03-25T20:47:40.099Z,17.70
2019-03-25T20:50:23.215Z,22.73
2019-03-25T20:52:50.995Z,23.07
2019-03-25T20:55:18.660Z,21.37
2019-03-25T20:57:46.315Z,15.10
2019-03-25T21:00:14.361Z,18.43
2019-03-25T21:02:45.190Z,17.90
2019-03-25T21:05:11.922Z,21.70
2019-03-25T21:07:39.652Z,20.50
2019-03-25T21:10:07.486Z,21.70
2019-03-25T21:12:35.205Z,28.17
2019-03-25T21:15:22.502Z,22.00
2019-03-25T21:17:50.254Z,36.47
2019-03-25T21:20:17.982Z,17.87
2019-03-25T21:22:45.598Z,24.27
2019-03-25T21:25:13.276Z,25.17
2019-03-25T21:27:40.981Z,25.20
2019-03-25T21:30:09.788Z,26.30
2019-03-25T21:32:37.484Z,14.73
2019-03-25T21:35:05.679Z,19.00
2019-03-25T21:37:33.450Z,21.27
2019-03-25T21:40:01.073Z,24.23
2019-03-25T21:42:29.283Z,19.33
2019-03-25T21:44:57.192Z,20.87
2019-03-25T21:47:24.881Z,19.67
2019-03-25T21:49:52.632Z,22.93
2019-03-25T21:52:20.620Z,18.83
2019-03-25T21:54:48.359Z,18.27
2019-03-25T21:57:16.019Z,21.97
2019-03-25T21:59:43.578Z,21.53
2019-03-25T22:02:11.242Z,22.73
2019-03-25T22:04:38.882Z,15.20
2019-03-25T22:07:06.511Z,18.33
2019-03-25T22:09:34.163Z,12.03
2019-03-25T22:12:01.774Z,14.77
2019-03-25T22:14:29.358Z,19.33
2019-03-25T22:16:57.059Z,23.63
2019-03-25T22:19:24.723Z,16.70
2019-03-25T22:21:52.386Z,19.00
2019-03-25T22:24:25.141Z,21.47
2019-03-25T22:26:52.813Z,18.47
2019-03-25T22:29:20.477Z,15.10
2019-03-25T22:31:48.145Z,14.53
2019-03-25T22:34:15.783Z,20.73
2019-03-25T22:36:43.387Z,13.10
2019-03-25T22:39:11.035Z,16.53
2019-03-25T22:41:38.696Z,14.30
2019-03-25T22:44:06.417Z,17.67
2019-03-25T22:46:34.100Z,17.93
2019-03-25T22:49:01.749Z,16.83
2019-03-25T22:51:29.381Z,16.50
2019-03-25T22:53:57.001Z,23.80
2019-03-25T22:56:24.716Z,17.17
2019-03-25T22:58:52.407Z,16.20
2019-03-25T23:01:20.173Z,16.20
2019-03-25T23:03:47.828Z,15.60
2019-03-25T23:06:15.432Z,13.77
2019-03-25T23:08:43.026Z,13.43
2019-03-25T23:11:10.658Z,14.30
2019-03-25T23:13:38.245Z,16.07
2019-03-25T23:16:05.846Z,19.07
2019-03-25T23:18:33.468Z,14.83
2019-03-25T23:21:01.096Z,12.17
2019-03-25T23:23:28.692Z,18.60
2019-03-25T23:25:57.385Z,13.77
2019-03-25T23:31:41.470Z,16.53
2019-03-25T23:34:09.066Z,11.70
2019-03-25T23:36:36.652Z,17.37
2019-03-25T23:39:06.326Z,19.80
2019-03-25T23:41:34.031Z,16.10
2019-03-25T23:44:01.652Z,19.03
2019-03-25T23:46:38.325Z,18.13
2019-03-25T23:49:05.925Z,13.93
2019-03-25T23:51:33.536Z,14.27
2019-03-25T23:54:29.861Z,18.17
2019-03-25T23:56:57.446Z,14.30
